Bisbee Douglas International Airport
KDUG : rendu visible

Aérodrome :











RETROUVEZ-NOUS SUR...

 
LOGIN :

S'inscrire | Disclaimer

   EN    FR    IT 

 









Légende :    VFR   VFR Marginal   IFR   IFR Intensif   IFR Très Intensif
Visi : 
Plafond : 
>= 8 km
>= 3000ft
5 à 8 km
1000 à 3000 ft
1500m à 5 km
500 à 1000 ft
800 à 1500m
200 à 500 ft
< 800m
< 200 ft
Symboles :   Orages  Brouillard  Fortes neiges  Fortes précipitations  Vent > 20 kt






- Altitude de l'aérodrome : 4154 ft


KDUG - Bisbee Douglas International

DERNIER METAR :
  • 100756Z AUTO 36006KT 10SM OVC033 06/04 A3010 RMK AO2 SLP167 T00610044 $

METARs EXPIRÉS :
  • 100656Z AUTO 07003KT 10SM OVC040 06/05 A3009 RMK AO2 SLP163 T00610050 401390056 $
  • 100556Z AUTO 06004KT 10SM OVC044 06/05 A3007 RMK AO2 SLP159 60004 T00610050 10072 20056 53012 $

TAF KDUG
Valide du 10 à 06h jusqu'au 11 à 06h UTC


100533Z 1006/1106 33005KT P6SM FEW012 OVC030
FM100800 VRB04KT 3SM BR SCT010 OVC025
FM101500 VRB04KT P6SM FEW010 SCT030
FM101800 10005KT P6SM SKC
FM102200 07006KT P6SM FEW070 SCT250



MET'MAP, la Météo Aéronautique d'un coup d'oeil ! - Copyright ORBIFLY Décembre 2007 - Disclaimer

ORBIFLY MET'MAP TEAM :

Programmation & Développement : Alexandra Zaïnal
Sur une idée originale de : Baudouin d'Aumeries
Assistance à la programmation : Marc-Olivier Méhu
Soutien technique & logistique : Manuel Goepfert

Contact : metmap@orbifly.com




SOURCES & CREDITS :

   NOAA       Earth
Advisory